Back to Top

Language: 

My Weather Underground Personal Weather Station Historical Data with Graphs...

Delerius Weather Station Historical Data
Daily Summary for September 21, 2017 Units:  English    Metric   Both
« Previous Day
Next Day »
Daily Weekly Monthly Yearly Custom
  High: Low: Average:
Temperature: 61.2 °F 46.4 °F 56.7 °F
Dew Point: 57.2 °F 43.9 °F 53.3 °F
Humidity: 93 % 75 % 89 %
Wind Speed: 14.0 mph 0.0 mph 7 mph
Wind Gust: 24.0 mph - -
Wind:- - SW
Pressure: 30.05 in 29.83 in -
Precipitation: 0.05 in    
Historical Graphs
 
 
Tabular Data for September 21, 2017
Time Temperature Dew Point Pressure Wind Wind Speed Wind Gust Humidity Rainfall Rate (Hourly) solar Conditions
00:03 58.3 °F 55.1 °F 29.88 in SE 3.0 mph 7.0 mph 89 % 0.00 in 0 W/m2
00:08 58.3 °F 55.1 °F 29.88 in SE 5.0 mph 14.0 mph 89 % 0.00 in 0 W/m2
00:13 58.3 °F 55.1 °F 29.88 in South 7.0 mph 14.0 mph 89 % 0.00 in 0 W/m2
00:18 58.3 °F 55.1 °F 29.88 in South 6.0 mph 13.0 mph 89 % 0.00 in 0 W/m2
00:23 58.3 °F 55.1 °F 29.88 in SSW 7.0 mph 14.0 mph 89 % 0.00 in 0 W/m2
00:28 58.3 °F 55.1 °F 29.88 in SSW 7.0 mph 14.0 mph 89 % 0.00 in 0 W/m2
00:33 58.3 °F 55.1 °F 29.88 in SSW 6.0 mph 11.0 mph 89 % 0.00 in 0 W/m2
00:38 58.3 °F 55.1 °F 29.88 in SSW 7.0 mph 12.0 mph 89 % 0.00 in 0 W/m2
00:43 58.1 °F 55.2 °F 29.88 in SSW 7.0 mph 12.0 mph 90 % 0.00 in 0 W/m2
00:48 58.1 °F 55.2 °F 29.88 in SSW 8.0 mph 13.0 mph 90 % 0.00 in 0 W/m2
00:53 57.9 °F 55.0 °F 29.88 in SSW 8.0 mph 16.0 mph 90 % 0.00 in 0 W/m2
00:58 57.9 °F 55.3 °F 29.88 in SSW 8.0 mph 16.0 mph 91 % 0.00 in 0 W/m2
01:03 57.7 °F 54.8 °F 29.88 in SSW 9.0 mph 14.0 mph 90 % 0.00 in 0 W/m2
01:08 57.7 °F 54.8 °F 29.88 in SSW 9.0 mph 14.0 mph 90 % 0.00 in 0 W/m2
01:13 57.7 °F 54.8 °F 29.88 in SSW 9.0 mph 14.0 mph 90 % 0.00 in 0 W/m2
01:18 57.7 °F 54.8 °F 29.88 in SSW 9.0 mph 15.0 mph 90 % 0.00 in 0 W/m2
01:23 57.7 °F 54.8 °F 29.88 in SW 9.0 mph 18.0 mph 90 % 0.00 in 0 W/m2
01:28 57.7 °F 54.8 °F 29.88 in SW 9.0 mph 18.0 mph 90 % 0.00 in 0 W/m2
01:33 57.7 °F 55.1 °F 29.87 in SSW 8.0 mph 16.0 mph 91 % 0.00 in 0 W/m2
01:38 57.7 °F 55.1 °F 29.88 in SSW 7.0 mph 10.0 mph 91 % 0.00 in 0 W/m2
01:43 57.7 °F 55.1 °F 29.88 in South 7.0 mph 12.0 mph 91 % 0.00 in 0 W/m2
01:48 57.7 °F 55.1 °F 29.88 in SSW 7.0 mph 13.0 mph 91 % 0.00 in 0 W/m2
01:53 57.7 °F 55.1 °F 29.88 in South 6.0 mph 13.0 mph 91 % 0.00 in 0 W/m2
01:58 57.6 °F 55.0 °F 29.88 in South 6.0 mph 10.0 mph 91 % 0.00 in 0 W/m2
02:03 57.6 °F 55.0 °F 29.87 in South 6.0 mph 12.0 mph 91 % 0.00 in 0 W/m2
02:08 57.6 °F 55.0 °F 29.87 in South 6.0 mph 13.0 mph 91 % 0.00 in 0 W/m2
02:13 57.6 °F 55.0 °F 29.87 in South 7.0 mph 13.0 mph 91 % 0.00 in 0 W/m2
02:18 57.6 °F 55.0 °F 29.88 in South 8.0 mph 12.0 mph 91 % 0.00 in 0 W/m2
02:23 57.6 °F 55.0 °F 29.88 in South 8.0 mph 20.0 mph 91 % 0.00 in 0 W/m2
02:28 57.7 °F 55.1 °F 29.88 in SSW 9.0 mph 20.0 mph 91 % 0.00 in 0 W/m2
02:33 57.7 °F 55.4 °F 29.88 in SSW 9.0 mph 16.0 mph 92 % 0.00 in 0 W/m2
02:38 57.7 °F 55.4 °F 29.87 in SSW 9.0 mph 15.0 mph 92 % 0.00 in 0 W/m2
02:40 57.7 °F 55.4 °F 29.87 in SSW 9.0 mph 15.0 mph 92 % 0.00 in 0 W/m2
02:45 57.7 °F 55.4 °F 29.87 in SSW 10.0 mph 16.0 mph 92 % 0.00 in 0 W/m2
02:46 57.7 °F 55.4 °F 29.87 in SSW 10.0 mph 16.0 mph 92 % 0.00 in 0 W/m2
02:51 57.7 °F 55.4 °F 29.87 in SSW 10.0 mph 16.0 mph 92 % 0.00 in 0 W/m2
02:56 57.7 °F 55.4 °F 29.87 in SSW 10.0 mph 16.0 mph 92 % 0.00 in 0 W/m2
03:01 57.7 °F 55.4 °F 29.87 in SSW 10.0 mph 15.0 mph 92 % 0.00 in 0 W/m2
03:06 57.7 °F 55.4 °F 29.87 in SSW 10.0 mph 18.0 mph 92 % 0.00 in 0 W/m2
03:11 57.7 °F 55.4 °F 29.87 in SSW 9.0 mph 18.0 mph 92 % 0.00 in 0 W/m2
03:16 57.7 °F 55.4 °F 29.87 in SSW 9.0 mph 14.0 mph 92 % 0.00 in 0 W/m2
03:21 57.7 °F 55.4 °F 29.86 in SSW 9.0 mph 14.0 mph 92 % 0.00 in 0 W/m2
03:26 57.7 °F 55.4 °F 29.86 in SSW 8.0 mph 14.0 mph 92 % 0.00 in 0 W/m2
03:28 57.7 °F 55.4 °F 29.86 in SSW 9.0 mph 14.0 mph 92 % 0.00 in 0 W/m2
03:33 57.7 °F 55.4 °F 29.86 in South 9.0 mph 15.0 mph 92 % 0.00 in 0 W/m2
03:38 57.7 °F 55.4 °F 29.86 in SSW 8.0 mph 15.0 mph 92 % 0.00 in 0 W/m2
03:43 57.7 °F 55.4 °F 29.86 in SSW 9.0 mph 15.0 mph 92 % 0.00 in 0 W/m2
03:48 57.7 °F 55.4 °F 29.86 in SSW 9.0 mph 15.0 mph 92 % 0.00 in 0 W/m2
03:53 57.7 °F 55.4 °F 29.85 in SSW 7.0 mph 12.0 mph 92 % 0.00 in 0 W/m2
03:58 57.7 °F 55.4 °F 29.85 in SSW 9.0 mph 20.0 mph 92 % 0.00 in 0 W/m2
04:03 57.7 °F 55.4 °F 29.86 in SSW 10.0 mph 20.0 mph 92 % 0.00 in 0 W/m2
04:08 57.7 °F 55.4 °F 29.85 in SSW 9.0 mph 15.0 mph 92 % 0.00 in 0 W/m2
04:13 57.7 °F 55.4 °F 29.85 in SSW 9.0 mph 18.0 mph 92 % 0.00 in 0 W/m2
04:18 57.9 °F 55.6 °F 29.85 in SSW 9.0 mph 18.0 mph 92 % 0.00 in 0 W/m2
04:20 57.9 °F 55.6 °F 29.85 in SSW 8.0 mph 14.0 mph 92 % 0.00 in 0 W/m2
04:24 57.9 °F 55.6 °F 29.85 in SSW 8.0 mph 13.0 mph 92 % 0.00 in 0 W/m2
04:25 57.9 °F 55.6 °F 29.85 in SSW 7.0 mph 13.0 mph 92 % 0.00 in 0 W/m2
04:28 57.9 °F 55.6 °F 29.85 in SSW 7.0 mph 13.0 mph 92 % 0.00 in 0 W/m2
04:33 57.9 °F 55.6 °F 29.85 in SSW 6.0 mph 11.0 mph 92 % 0.00 in 0 W/m2
04:38 57.9 °F 55.6 °F 29.84 in SSW 5.0 mph 11.0 mph 92 % 0.00 in 0 W/m2
04:43 57.9 °F 55.6 °F 29.84 in South 6.0 mph 11.0 mph 92 % 0.00 in 0 W/m2
04:48 57.9 °F 55.6 °F 29.84 in South 7.0 mph 12.0 mph 92 % 0.00 in 0 W/m2
04:53 57.9 °F 55.6 °F 29.84 in South 8.0 mph 14.0 mph 92 % 0.00 in 0 W/m2
04:58 57.9 °F 55.6 °F 29.84 in South 8.0 mph 14.0 mph 92 % 0.00 in 0 W/m2
05:03 57.9 °F 55.6 °F 29.84 in South 8.0 mph 12.0 mph 92 % 0.00 in 0 W/m2
05:08 57.9 °F 55.6 °F 29.84 in South 7.0 mph 12.0 mph 92 % 0.00 in 0 W/m2
05:13 57.9 °F 55.6 °F 29.84 in South 7.0 mph 13.0 mph 92 % 0.00 in 0 W/m2
05:18 57.9 °F 55.6 °F 29.84 in SSW 6.0 mph 13.0 mph 92 % 0.00 in 0 W/m2
05:23 57.9 °F 55.6 °F 29.84 in South 4.0 mph 11.0 mph 92 % 0.00 in 0 W/m2
05:28 57.9 °F 55.6 °F 29.84 in South 6.0 mph 13.0 mph 92 % 0.00 in 0 W/m2
05:33 57.9 °F 55.6 °F 29.84 in SSW 7.0 mph 13.0 mph 92 % 0.00 in 0 W/m2
05:38 57.9 °F 55.6 °F 29.84 in SSW 6.0 mph 13.0 mph 92 % 0.00 in 0 W/m2
05:43 57.9 °F 55.6 °F 29.84 in South 5.0 mph 10.0 mph 92 % 0.00 in 0 W/m2
05:48 57.9 °F 55.6 °F 29.84 in South 5.0 mph 11.0 mph 92 % 0.00 in 0 W/m2
05:53 57.9 °F 55.6 °F 29.83 in South 6.0 mph 13.0 mph 92 % 0.00 in 0 W/m2
05:58 57.9 °F 55.6 °F 29.83 in South 7.0 mph 13.0 mph 92 % 0.00 in 0 W/m2
06:03 57.9 °F 55.3 °F 29.83 in South 8.0 mph 15.0 mph 91 % 0.00 in 0 W/m2
06:08 57.9 °F 55.3 °F 29.83 in South 7.0 mph 15.0 mph 91 % 0.00 in 0 W/m2
06:09 57.9 °F 55.3 °F 29.83 in South 7.0 mph 15.0 mph 91 % 0.00 in 0 W/m2
06:14 57.9 °F 55.3 °F 29.83 in South 8.0 mph 15.0 mph 91 % 0.00 in 0 W/m2
06:19 57.9 °F 55.3 °F 29.83 in South 9.0 mph 15.0 mph 91 % 0.00 in 0 W/m2
06:24 57.9 °F 55.3 °F 29.84 in South 9.0 mph 18.0 mph 91 % 0.00 in 0 W/m2
06:26 58.1 °F 55.5 °F 29.84 in South 9.0 mph 18.0 mph 91 % 0.00 in 0 W/m2
06:31 58.1 °F 55.5 °F 29.83 in South 8.0 mph 18.0 mph 91 % 0.00 in 0 W/m2
06:36 58.1 °F 55.5 °F 29.83 in South 8.0 mph 16.0 mph 91 % 0.00 in 0 W/m2
06:41 58.1 °F 55.5 °F 29.83 in South 8.0 mph 14.0 mph 91 % 0.00 in 0 W/m2
06:46 58.1 °F 55.5 °F 29.83 in SSE 7.0 mph 12.0 mph 91 % 0.00 in 0 W/m2
06:51 58.3 °F 55.7 °F 29.84 in South 7.0 mph 14.0 mph 91 % 0.00 in 0 W/m2
06:56 58.3 °F 55.7 °F 29.83 in South 8.0 mph 14.0 mph 91 % 0.00 in 0 W/m2
07:01 58.3 °F 55.7 °F 29.84 in South 7.0 mph 14.0 mph 91 % 0.00 in 0 W/m2
07:06 58.3 °F 55.7 °F 29.83 in SSE 6.0 mph 14.0 mph 91 % 0.00 in 5 W/m2
07:11 58.3 °F 55.7 °F 29.83 in South 7.0 mph 14.0 mph 91 % 0.00 in 5 W/m2
07:16 58.3 °F 55.7 °F 29.83 in South 7.0 mph 14.0 mph 91 % 0.00 in 7 W/m2
07:21 58.3 °F 55.7 °F 29.83 in South 7.0 mph 13.0 mph 91 % 0.00 in 9 W/m2
07:26 58.3 °F 55.7 °F 29.83 in South 7.0 mph 12.0 mph 91 % 0.00 in 14 W/m2
07:31 58.3 °F 55.7 °F 29.83 in South 7.0 mph 14.0 mph 91 % 0.00 in 21 W/m2
07:36 58.3 °F 55.7 °F 29.83 in South 7.0 mph 14.0 mph 91 % 0.00 in 32 W/m2
07:39 58.5 °F 55.8 °F 29.83 in South 7.0 mph 14.0 mph 91 % 0.00 in 33 W/m2
07:44 58.5 °F 55.8 °F 29.83 in South 9.0 mph 16.0 mph 91 % 0.00 in 33 W/m2
07:49 58.5 °F 55.5 °F 29.83 in South 9.0 mph 16.0 mph 90 % 0.00 in 26 W/m2
07:54 58.5 °F 55.5 °F 29.83 in South 10.0 mph 21.0 mph 90 % 0.00 in 21 W/m2
07:59 58.5 °F 55.5 °F 29.83 in South 11.0 mph 22.0 mph 90 % 0.00 in 26 W/m2
08:04 58.6 °F 55.7 °F 29.83 in South 10.0 mph 22.0 mph 90 % 0.00 in 35 W/m2
08:09 58.6 °F 55.7 °F 29.83 in South 10.0 mph 19.0 mph 90 % 0.00 in 39 W/m2
08:14 58.6 °F 55.7 °F 29.83 in South 9.0 mph 19.0 mph 90 % 0.00 in 28 W/m2
08:17 58.6 °F 55.7 °F 29.83 in South 8.0 mph 19.0 mph 90 % 0.00 in 33 W/m2
08:22 58.6 °F 55.7 °F 29.83 in South 9.0 mph 19.0 mph 90 % 0.00 in 39 W/m2
08:27 58.6 °F 55.7 °F 29.84 in South 11.0 mph 19.0 mph 90 % 0.00 in 39 W/m2
08:32 58.6 °F 55.7 °F 29.83 in South 9.0 mph 20.0 mph 90 % 0.00 in 56 W/m2
08:37 58.6 °F 55.7 °F 29.83 in South 9.0 mph 21.0 mph 90 % 0.00 in 58 W/m2
08:42 58.6 °F 55.7 °F 29.83 in South 10.0 mph 21.0 mph 90 % 0.00 in 72 W/m2
08:47 58.8 °F 55.9 °F 29.83 in South 10.0 mph 20.0 mph 90 % 0.00 in 88 W/m2
08:52 58.8 °F 55.9 °F 29.83 in South 10.0 mph 20.0 mph 90 % 0.00 in 97 W/m2
08:57 58.8 °F 55.9 °F 29.84 in South 10.0 mph 24.0 mph 90 % 0.00 in 120 W/m2
09:02 59.0 °F 56.1 °F 29.84 in South 11.0 mph 24.0 mph 90 % 0.00 in 100 W/m2
09:07 59.0 °F 56.1 °F 29.84 in South 11.0 mph 20.0 mph 90 % 0.00 in 88 W/m2
09:12 59.0 °F 56.1 °F 29.84 in South 11.0 mph 21.0 mph 90 % 0.00 in 79 W/m2
09:17 59.0 °F 56.1 °F 29.84 in SSW 13.0 mph 24.0 mph 90 % 0.00 in 79 W/m2
09:22 59.2 °F 56.2 °F 29.84 in SSW 12.0 mph 24.0 mph 90 % 0.00 in 79 W/m2
09:27 59.2 °F 56.2 °F 29.83 in SSW 11.0 mph 20.0 mph 90 % 0.00 in 100 W/m2
09:32 59.2 °F 55.9 °F 29.83 in SSW 12.0 mph 23.0 mph 89 % 0.00 in 125 W/m2
09:37 59.2 °F 55.9 °F 29.83 in SSW 13.0 mph 23.0 mph 89 % 0.00 in 167 W/m2
09:43 59.4 °F 56.1 °F 29.83 in SSW 12.0 mph 22.0 mph 89 % 0.00 in 185 W/m2
09:48 59.5 °F 56.3 °F 29.83 in SSW 11.0 mph 22.0 mph 89 % 0.00 in 248 W/m2
09:53 59.7 °F 56.5 °F 29.83 in SSW 11.0 mph 20.0 mph 89 % 0.00 in 339 W/m2
09:58 60.1 °F 56.5 °F 29.83 in SSW 13.0 mph 23.0 mph 88 % 0.00 in 221 W/m2
10:03 60.3 °F 56.7 °F 29.83 in SSW 12.0 mph 23.0 mph 88 % 0.00 in 207 W/m2
10:08 60.3 °F 56.7 °F 29.83 in SSW 11.0 mph 20.0 mph 88 % 0.00 in 123 W/m2
10:13 60.3 °F 56.4 °F 29.83 in SSW 9.0 mph 20.0 mph 87 % 0.00 in 148 W/m2
10:18 60.4 °F 56.6 °F 29.83 in SSW 9.0 mph 15.0 mph 87 % 0.00 in 272 W/m2
10:23 60.6 °F 56.7 °F 29.83 in SSW 10.0 mph 18.0 mph 87 % 0.00 in 251 W/m2
10:28 60.8 °F 56.9 °F 29.83 in SSW 11.0 mph 20.0 mph 87 % 0.00 in 225 W/m2
10:33 61.0 °F 56.8 °F 29.83 in SSW 12.0 mph 21.0 mph 86 % 0.00 in 236 W/m2
10:38 61.0 °F 56.8 °F 29.83 in SSW 12.0 mph 22.0 mph 86 % 0.00 in 227 W/m2
10:43 61.2 °F 56.9 °F 29.83 in SSW 10.0 mph 22.0 mph 86 % 0.00 in 197 W/m2
10:48 61.2 °F 56.6 °F 29.83 in SSW 9.0 mph 18.0 mph 85 % 0.00 in 204 W/m2
10:53 61.2 °F 56.6 °F 29.83 in SSW 10.0 mph 22.0 mph 85 % 0.00 in 197 W/m2
10:58 61.2 °F 56.9 °F 29.83 in SSW 11.0 mph 22.0 mph 86 % 0.00 in 162 W/m2
11:03 61.0 °F 56.8 °F 29.83 in SSW 11.0 mph 24.0 mph 86 % 0.00 in 111 W/m2
11:08 61.0 °F 56.4 °F 29.83 in SSW 12.0 mph 24.0 mph 85 % 0.00 in 93 W/m2
11:13 60.8 °F 56.6 °F 29.83 in SSW 12.0 mph 23.0 mph 86 % 0.00 in 105 W/m2
11:18 60.6 °F 56.4 °F 29.83 in SSW 11.0 mph 20.0 mph 86 % 0.00 in 100 W/m2
11:23 60.6 °F 56.4 °F 29.83 in SSW 12.0 mph 22.0 mph 86 % 0.00 in 93 W/m2
11:28 60.4 °F 56.2 °F 29.83 in SSW 13.0 mph 24.0 mph 86 % 0.00 in 107 W/m2
11:33 60.4 °F 56.2 °F 29.84 in SSW 14.0 mph 24.0 mph 86 % 0.00 in 93 W/m2
11:38 60.4 °F 56.6 °F 29.84 in SSW 12.0 mph 24.0 mph 87 % 0.00 in 109 W/m2
11:43 60.4 °F 56.6 °F 29.84 in SSW 10.0 mph 24.0 mph 87 % 0.00 in 121 W/m2
11:48 60.3 °F 56.4 °F 29.83 in SSW 11.0 mph 22.0 mph 87 % 0.00 in 123 W/m2
11:53 60.3 °F 56.4 °F 29.84 in SSW 12.0 mph 22.0 mph 87 % 0.00 in 123 W/m2
11:58 60.3 °F 56.4 °F 29.84 in SSW 13.0 mph 24.0 mph 87 % 0.00 in 107 W/m2
12:03 60.3 °F 56.7 °F 29.84 in SSW 12.0 mph 24.0 mph 88 % 0.00 in 104 W/m2
12:08 60.3 °F 56.7 °F 29.84 in SSW 10.0 mph 23.0 mph 88 % 0.00 in 83 W/m2
12:13 60.3 °F 56.7 °F 29.84 in SSW 10.0 mph 23.0 mph 88 % 0.00 in 81 W/m2
12:18 60.3 °F 56.7 °F 29.84 in SSW 11.0 mph 19.0 mph 88 % 0.00 in 84 W/m2
12:24 60.3 °F 56.7 °F 29.84 in SSW 10.0 mph 16.0 mph 88 % 0.00 in 88 W/m2
12:29 60.3 °F 56.7 °F 29.84 in SSW 9.0 mph 18.0 mph 88 % 0.00 in 120 W/m2
12:33 60.3 °F 56.7 °F 29.84 in SSW 9.0 mph 18.0 mph 88 % 0.00 in 121 W/m2
12:39 60.4 °F 56.9 °F 29.84 in SSW 9.0 mph 15.0 mph 88 % 0.00 in 125 W/m2
12:44 60.4 °F 57.2 °F 29.84 in SSW 10.0 mph 16.0 mph 89 % 0.00 in 141 W/m2
12:49 60.4 °F 57.2 °F 29.84 in SSW 10.0 mph 16.0 mph 89 % 0.00 in 160 W/m2
12:54 60.4 °F 57.2 °F 29.84 in SSW 8.0 mph 14.0 mph 89 % 0.00 in 135 W/m2
12:59 60.4 °F 57.2 °F 29.84 in SSW 9.0 mph 20.0 mph 89 % 0.00 in 118 W/m2
13:04 60.4 °F 57.2 °F 29.84 in SSW 10.0 mph 20.0 mph 89 % 0.00 in 118 W/m2
13:09 60.4 °F 57.2 °F 29.85 in SSW 10.0 mph 18.0 mph 89 % 0.00 in 77 W/m2
13:14 60.4 °F 57.2 °F 29.85 in SSW 9.0 mph 16.0 mph 89 % 0.00 in 60 W/m2
13:19 60.4 °F 57.2 °F 29.85 in SSW 7.0 mph 13.0 mph 89 % 0.00 in 42 W/m2
13:24 60.3 °F 56.7 °F 29.86 in WSW 7.0 mph 15.0 mph 88 % 0.01 in 25 W/m2
13:29 59.4 °F 56.1 °F 29.86 in West 7.0 mph 15.0 mph 89 % 0.02 in 62 W/m2
13:34 58.8 °F 55.9 °F 29.86 in WSW 6.0 mph 14.0 mph 90 % 0.02 in 47 W/m2
13:39 58.5 °F 55.8 °F 29.86 in SW 4.0 mph 7.0 mph 91 % 0.02 in 51 W/m2
13:44 58.3 °F 56.0 °F 29.86 in SW 2.0 mph 6.0 mph 92 % 0.02 in 53 W/m2
13:49 58.3 °F 56.0 °F 29.86 in SW 2.0 mph 6.0 mph 92 % 0.03 in 74 W/m2
13:54 58.1 °F 55.8 °F 29.86 in SSW 1.0 mph 6.0 mph 92 % 0.03 in 81 W/m2
13:59 58.3 °F 56.3 °F 29.86 in West 1.0 mph 8.0 mph 93 % 0.04 in 107 W/m2
14:04 58.3 °F 56.3 °F 29.86 in West 3.0 mph 8.0 mph 93 % 0.04 in 107 W/m2
14:09 58.5 °F 56.4 °F 29.86 in West 4.0 mph 8.0 mph 93 % 0.04 in 81 W/m2
14:14 58.5 °F 56.4 °F 29.86 in West 4.0 mph 7.0 mph 93 % 0.04 in 65 W/m2
14:19 58.5 °F 56.4 °F 29.86 in West 4.0 mph 7.0 mph 93 % 0.04 in 81 W/m2
14:24 58.5 °F 56.4 °F 29.87 in West 4.0 mph 9.0 mph 93 % 0.03 in 91 W/m2
14:29 58.3 °F 56.3 °F 29.87 in West 6.0 mph 14.0 mph 93 % 0.02 in 81 W/m2
14:35 57.7 °F 55.4 °F 29.87 in WNW 8.0 mph 15.0 mph 92 % 0.02 in 60 W/m2
14:40 57.6 °F 55.3 °F 29.87 in WNW 8.0 mph 15.0 mph 92 % 0.02 in 98 W/m2
14:44 57.6 °F 55.3 °F 29.87 in WNW 8.0 mph 15.0 mph 92 % 0.02 in 105 W/m2
14:50 57.6 °F 55.3 °F 29.88 in WNW 7.0 mph 12.0 mph 92 % 0.01 in 84 W/m2
14:55 57.4 °F 54.8 °F 29.88 in WNW 8.0 mph 14.0 mph 91 % 0.01 in 93 W/m2
15:00 57.4 °F 55.1 °F 29.88 in WNW 7.0 mph 14.0 mph 92 % 0.00 in 100 W/m2
15:05 57.4 °F 54.8 °F 29.88 in WNW 6.0 mph 12.0 mph 91 % 0.00 in 113 W/m2
15:10 57.4 °F 54.8 °F 29.88 in WNW 6.0 mph 12.0 mph 91 % 0.00 in 76 W/m2
15:15 57.4 °F 55.1 °F 29.88 in WNW 4.0 mph 10.0 mph 92 % 0.00 in 79 W/m2
15:20 57.2 °F 54.6 °F 29.89 in West 4.0 mph 8.0 mph 91 % 0.00 in 62 W/m2
15:25 57.0 °F 54.4 °F 29.89 in West 5.0 mph 9.0 mph 91 % 0.00 in 77 W/m2
15:30 57.0 °F 54.1 °F 29.89 in WNW 6.0 mph 14.0 mph 90 % 0.00 in 104 W/m2
15:35 57.0 °F 54.1 °F 29.89 in WNW 7.0 mph 14.0 mph 90 % 0.00 in 83 W/m2
15:40 57.2 °F 54.0 °F 29.89 in West 7.0 mph 12.0 mph 89 % 0.00 in 60 W/m2
15:45 57.0 °F 53.5 °F 29.89 in West 7.0 mph 12.0 mph 88 % 0.00 in 70 W/m2
15:50 57.0 °F 53.2 °F 29.89 in West 6.0 mph 12.0 mph 87 % 0.00 in 72 W/m2
15:55 57.0 °F 53.5 °F 29.89 in West 6.0 mph 11.0 mph 88 % 0.00 in 60 W/m2
16:00 57.0 °F 53.5 °F 29.90 in West 6.0 mph 11.0 mph 88 % 0.00 in 65 W/m2
16:05 57.0 °F 53.5 °F 29.90 in West 6.0 mph 12.0 mph 88 % 0.00 in 77 W/m2
16:10 57.0 °F 53.2 °F 29.90 in West 8.0 mph 14.0 mph 87 % 0.00 in 84 W/m2
16:12 57.0 °F 53.2 °F 29.90 in West 8.0 mph 14.0 mph 87 % 0.00 in 86 W/m2
16:17 57.2 °F 53.4 °F 29.90 in WNW 8.0 mph 12.0 mph 87 % 0.00 in 86 W/m2
16:22 57.2 °F 53.4 °F 29.90 in WNW 6.0 mph 11.0 mph 87 % 0.00 in 109 W/m2
16:27 57.4 °F 53.5 °F 29.90 in WNW 5.0 mph 9.0 mph 87 % 0.00 in 111 W/m2
16:36 57.4 °F 53.2 °F 29.90 in WNW 7.0 mph 8.0 mph 86 % 0.00 in 58 W/m2
16:41 57.4 °F 52.9 °F 29.90 in WNW 8.0 mph 12.0 mph 85 % 0.00 in 54 W/m2
16:46 57.4 °F 52.6 °F 29.90 in WNW 8.0 mph 14.0 mph 84 % 0.00 in 53 W/m2
16:51 57.4 °F 52.9 °F 29.90 in WNW 7.0 mph 14.0 mph 85 % 0.00 in 58 W/m2
16:56 57.4 °F 52.9 °F 29.90 in WNW 6.0 mph 11.0 mph 85 % 0.00 in 51 W/m2
17:01 57.2 °F 52.4 °F 29.91 in WNW 7.0 mph 14.0 mph 84 % 0.00 in 83 W/m2
17:06 57.2 °F 52.1 °F 29.91 in WNW 8.0 mph 14.0 mph 83 % 0.00 in 107 W/m2
17:11 57.4 °F 52.3 °F 29.91 in WNW 8.0 mph 14.0 mph 83 % 0.00 in 98 W/m2
17:16 57.4 °F 52.3 °F 29.91 in WNW 7.0 mph 12.0 mph 83 % 0.00 in 84 W/m2
17:21 57.4 °F 51.6 °F 29.91 in WNW 8.0 mph 14.0 mph 81 % 0.00 in 81 W/m2
17:27 57.4 °F 51.6 °F 29.92 in WNW 8.0 mph 14.0 mph 81 % 0.00 in 202 W/m2
17:32 57.7 °F 51.6 °F 29.92 in WNW 9.0 mph 14.0 mph 80 % 0.00 in 193 W/m2
17:37 58.1 °F 51.3 °F 29.92 in WNW 9.0 mph 15.0 mph 78 % 0.00 in 213 W/m2
17:38 58.1 °F 51.3 °F 29.92 in WNW 9.0 mph 15.0 mph 78 % 0.00 in 223 W/m2
17:43 58.3 °F 51.8 °F 29.92 in WNW 8.0 mph 15.0 mph 79 % 0.00 in 134 W/m2
17:48 58.1 °F 51.3 °F 29.93 in WNW 7.0 mph 13.0 mph 78 % 0.00 in 176 W/m2
17:53 58.3 °F 51.4 °F 29.93 in WNW 7.0 mph 13.0 mph 78 % 0.00 in 127 W/m2
17:58 58.1 °F 50.9 °F 29.93 in WNW 7.0 mph 13.0 mph 77 % 0.00 in 97 W/m2
18:03 58.1 °F 51.3 °F 29.93 in WNW 6.0 mph 13.0 mph 78 % 0.00 in 74 W/m2
18:09 57.9 °F 50.8 °F 29.94 in WNW 6.0 mph 13.0 mph 77 % 0.00 in 51 W/m2
18:14 57.7 °F 50.2 °F 29.94 in WNW 7.0 mph 14.0 mph 76 % 0.00 in 46 W/m2
18:19 57.4 °F 49.9 °F 29.94 in WNW 9.0 mph 18.0 mph 76 % 0.00 in 49 W/m2
18:24 57.2 °F 49.3 °F 29.94 in WNW 9.0 mph 18.0 mph 75 % 0.00 in 76 W/m2
18:29 57.0 °F 49.5 °F 29.94 in WNW 8.0 mph 15.0 mph 76 % 0.00 in 49 W/m2
18:34 56.8 °F 49.4 °F 29.95 in WNW 8.0 mph 15.0 mph 76 % 0.00 in 54 W/m2
18:39 56.8 °F 49.4 °F 29.95 in WNW 8.0 mph 15.0 mph 76 % 0.00 in 32 W/m2
18:44 56.7 °F 49.5 °F 29.95 in WNW 7.0 mph 13.0 mph 77 % 0.01 in 23 W/m2
18:45 56.5 °F 49.4 °F 29.95 in WNW 7.0 mph 12.0 mph 77 % 0.01 in 21 W/m2
18:50 56.3 °F 49.2 °F 29.95 in WNW 6.0 mph 12.0 mph 77 % 0.01 in 14 W/m2
18:55 55.9 °F 49.2 °F 29.95 in West 5.0 mph 8.0 mph 78 % 0.01 in 12 W/m2
19:00 55.8 °F 49.3 °F 29.95 in West 4.0 mph 8.0 mph 79 % 0.01 in 11 W/m2
19:05 55.4 °F 49.3 °F 29.96 in West 2.0 mph 7.0 mph 80 % 0.01 in 11 W/m2
19:10 55.0 °F 49.0 °F 29.96 in West 2.0 mph 7.0 mph 80 % 0.01 in 9 W/m2
19:15 54.9 °F 49.1 °F 29.97 in West 2.0 mph 6.0 mph 81 % 0.01 in 7 W/m2
19:20 54.7 °F 49.0 °F 29.97 in West 2.0 mph 7.0 mph 81 % 0.01 in 0 W/m2
19:25 54.3 °F 48.9 °F 29.97 in WNW 2.0 mph 7.0 mph 82 % 0.01 in 0 W/m2
19:29 54.0 °F 48.6 °F 29.97 in WNW 1.0 mph 5.0 mph 82 % 0.01 in 0 W/m2
19:34 53.8 °F 48.4 °F 29.98 in WNW 1.0 mph 4.0 mph 82 % 0.01 in 0 W/m2
19:39 53.4 °F 48.4 °F 29.98 in NW 1.0 mph 4.0 mph 83 % 0.01 in 0 W/m2
19:44 53.1 °F 48.0 °F 29.98 in NW 2.0 mph 5.0 mph 83 % 0.00 in 0 W/m2
19:49 52.9 °F 48.2 °F 29.98 in WNW 2.0 mph 8.0 mph 84 % 0.00 in 0 W/m2
19:54 52.5 °F 47.8 °F 29.98 in West 1.0 mph 8.0 mph 84 % 0.00 in 0 W/m2
19:59 52.2 °F 47.5 °F 29.99 in West 1.0 mph 6.0 mph 84 % 0.00 in 0 W/m2
20:04 52.0 °F 47.6 °F 29.99 in West 1.0 mph 4.0 mph 85 % 0.00 in 0 W/m2
20:09 51.6 °F 47.3 °F 29.99 in West 2.0 mph 6.0 mph 85 % 0.00 in 0 W/m2
20:14 51.4 °F 47.4 °F 29.99 in West 3.0 mph 9.0 mph 86 % 0.00 in 0 W/m2
20:19 51.3 °F 47.5 °F 29.99 in West 4.0 mph 9.0 mph 87 % 0.00 in 0 W/m2
20:24 51.3 °F 47.5 °F 29.99 in West 6.0 mph 9.0 mph 87 % 0.00 in 0 W/m2
20:29 51.1 °F 47.6 °F 29.99 in West 6.0 mph 9.0 mph 88 % 0.00 in 0 W/m2
20:34 51.1 °F 47.6 °F 30.00 in West 5.0 mph 9.0 mph 88 % 0.00 in 0 W/m2
20:39 51.1 °F 47.6 °F 30.00 in West 5.0 mph 8.0 mph 88 % 0.00 in 0 W/m2
20:44 50.9 °F 47.5 °F 30.00 in WNW 5.0 mph 8.0 mph 88 % 0.00 in 0 W/m2
20:50 50.7 °F 47.3 °F 30.00 in WNW 6.0 mph 9.0 mph 88 % 0.00 in 0 W/m2
20:55 50.7 °F 47.3 °F 30.00 in WNW 5.0 mph 9.0 mph 88 % 0.00 in 0 W/m2
20:58 50.7 °F 47.3 °F 30.00 in WNW 5.0 mph 8.0 mph 88 % 0.00 in 0 W/m2
21:03 50.7 °F 47.3 °F 30.00 in WNW 5.0 mph 8.0 mph 88 % 0.00 in 0 W/m2
21:08 50.5 °F 47.1 °F 30.00 in WNW 5.0 mph 8.0 mph 88 % 0.00 in 0 W/m2
21:13 50.5 °F 47.1 °F 30.01 in West 4.0 mph 7.0 mph 88 % 0.00 in 0 W/m2
21:18 50.4 °F 46.9 °F 30.01 in West 3.0 mph 7.0 mph 88 % 0.00 in 0 W/m2
21:23 50.2 °F 46.8 °F 30.01 in West 2.0 mph 5.0 mph 88 % 0.00 in 0 W/m2
21:28 50.0 °F 46.6 °F 30.01 in West 2.0 mph 5.0 mph 88 % 0.00 in 0 W/m2
21:33 49.6 °F 46.5 °F 30.01 in West 1.0 mph 5.0 mph 89 % 0.00 in 0 W/m2
21:38 49.5 °F 46.1 °F 30.02 in West 1.0 mph 4.0 mph 88 % 0.00 in 0 W/m2
21:44 49.3 °F 46.2 °F 30.02 in West 1.0 mph 5.0 mph 89 % 0.00 in 0 W/m2
21:49 49.1 °F 46.0 °F 30.02 in West 1.0 mph 5.0 mph 89 % 0.00 in 0 W/m2
21:54 48.9 °F 45.8 °F 30.02 in West 1.0 mph 4.0 mph 89 % 0.00 in 0 W/m2
21:59 48.6 °F 45.5 °F 30.02 in Calm   3.0 mph 89 % 0.00 in 0 W/m2
22:04 48.6 °F 46.1 °F 30.02 in West 1.0 mph 4.0 mph 91 % 0.00 in 0 W/m2
22:09 48.6 °F 45.8 °F 30.02 in West 1.0 mph 3.0 mph 90 % 0.00 in 0 W/m2
22:14 48.4 °F 45.6 °F 30.03 in Calm   4.0 mph 90 % 0.00 in 0 W/m2
22:19 48.2 °F 45.7 °F 30.03 in NW 2.0 mph 6.0 mph 91 % 0.00 in 0 W/m2
22:24 48.4 °F 45.9 °F 30.03 in WNW 4.0 mph 8.0 mph 91 % 0.00 in 0 W/m2
22:29 48.4 °F 45.9 °F 30.03 in West 5.0 mph 8.0 mph 91 % 0.00 in 0 W/m2
22:34 48.4 °F 45.9 °F 30.03 in West 6.0 mph 8.0 mph 91 % 0.00 in 0 W/m2
22:39 48.4 °F 45.9 °F 30.03 in West 6.0 mph 10.0 mph 91 % 0.00 in 0 W/m2
22:44 48.6 °F 46.1 °F 30.03 in West 6.0 mph 10.0 mph 91 % 0.00 in 0 W/m2
22:49 48.6 °F 46.1 °F 30.03 in West 4.0 mph 8.0 mph 91 % 0.00 in 0 W/m2
22:54 48.4 °F 45.9 °F 30.03 in West 3.0 mph 7.0 mph 91 % 0.00 in 0 W/m2
22:59 48.2 °F 45.7 °F 30.03 in West 1.0 mph 6.0 mph 91 % 0.00 in 0 W/m2
23:04 48.0 °F 45.5 °F 30.04 in WNW 2.0 mph 6.0 mph 91 % 0.00 in 0 W/m2
23:09 47.8 °F 45.3 °F 30.04 in WNW 2.0 mph 6.0 mph 91 % 0.00 in 0 W/m2
23:14 47.8 °F 45.3 °F 30.04 in WNW 3.0 mph 8.0 mph 91 % 0.00 in 0 W/m2
23:19 47.8 °F 45.3 °F 30.04 in WNW 5.0 mph 8.0 mph 91 % 0.00 in 0 W/m2
23:24 47.8 °F 45.3 °F 30.04 in WNW 5.0 mph 8.0 mph 91 % 0.00 in 0 W/m2
23:29 47.8 °F 45.3 °F 30.04 in WNW 4.0 mph 8.0 mph 91 % 0.00 in 0 W/m2
23:34 47.7 °F 45.2 °F 30.04 in WNW 2.0 mph 6.0 mph 91 % 0.00 in 0 W/m2
23:39 47.5 °F 45.0 °F 30.04 in Calm   6.0 mph 91 % 0.00 in 0 W/m2
23:44 47.3 °F 44.8 °F 30.05 in West 1.0 mph 4.0 mph 91 % 0.00 in 0 W/m2
23:49 46.9 °F 44.4 °F 30.05 in West 1.0 mph 4.0 mph 91 % 0.00 in 0 W/m2
23:54 46.6 °F 44.1 °F 30.05 in Calm   2.0 mph 91 % 0.00 in 0 W/m2
23:59 46.4 °F 43.9 °F 30.05 in Calm   4.0 mph 91 % 0.00 in 0 W/m2
Delerius-Weather
Compliments of Weather Underground - 2.25 mb

Data updates at regular intervals.